createdAt,value
2018-03-16T09:24:23.891Z,1260
2018-03-16T09:25:32.744Z,1324
2018-03-16T09:26:41.515Z,1352
2018-03-16T09:27:50.378Z,1352
2018-03-16T09:28:59.181Z,1372
2018-03-16T09:30:08.103Z,1348
2018-03-16T09:31:17.071Z,1428
2018-03-16T09:32:26.040Z,1436
2018-03-16T09:33:34.951Z,1468
2018-03-16T09:34:43.924Z,1456
2018-03-16T09:37:22.442Z,1368
2018-03-16T09:38:31.317Z,1356
2018-03-16T09:39:40.184Z,1344
2018-03-16T09:40:49.130Z,1296
2018-03-16T09:41:58.136Z,1308
2018-03-16T09:43:07.103Z,1304
2018-03-16T09:44:15.937Z,1296
2018-03-16T09:45:24.818Z,1340
2018-03-16T09:46:33.697Z,1340
2018-03-16T09:47:42.574Z,1316
2018-03-16T09:48:51.446Z,1260
2018-03-16T09:50:00.320Z,1220
2018-03-16T09:51:09.201Z,1192
2018-03-16T09:52:18.078Z,1188
2018-03-16T09:53:26.962Z,1180
2018-03-16T09:54:36.107Z,1212
2018-03-16T09:55:44.989Z,1208
2018-03-16T09:56:53.979Z,1212
2018-03-16T09:58:03.283Z,1208
2018-03-16T09:59:12.191Z,1220
2018-03-16T10:00:21.111Z,1228
2018-03-16T10:01:30.017Z,1252
2018-03-16T10:02:39.177Z,1248
2018-03-16T10:03:48.135Z,1268
2018-03-16T10:04:57.020Z,1308
2018-03-16T10:06:05.898Z,1336
2018-03-16T10:07:14.779Z,1364
2018-03-16T10:08:23.656Z,1372
2018-03-16T10:09:32.536Z,1380
2018-03-16T10:10:41.412Z,1404
2018-03-16T10:11:50.289Z,1416
2018-03-16T10:12:59.178Z,1400
2018-03-16T10:14:08.050Z,1368
2018-03-16T10:15:16.933Z,1328
2018-03-16T10:16:25.802Z,1288
2018-03-16T10:17:34.689Z,1332
2018-03-16T10:18:43.563Z,1388
2018-03-16T10:19:52.441Z,1440
2018-03-16T10:21:01.313Z,1472
2018-03-16T10:22:10.202Z,1492
2018-03-16T10:23:19.082Z,1536
2018-03-16T10:24:27.958Z,1576
2018-03-16T10:25:36.888Z,1504
2018-03-16T10:26:45.991Z,1476
2018-03-16T10:27:55.146Z,1604
2018-03-16T10:29:04.309Z,1596
2018-03-16T10:30:13.188Z,1708
2018-03-16T10:31:22.071Z,1724
2018-03-16T10:32:30.965Z,1720
2018-03-16T10:33:39.836Z,1656
2018-03-16T10:34:48.713Z,1668
2018-03-16T10:35:57.607Z,1700
2018-03-16T10:37:06.552Z,1684
2018-03-16T10:38:15.364Z,1748
2018-03-16T10:39:24.246Z,1668
2018-03-16T10:40:33.117Z,1644
2018-03-16T10:41:42.004Z,1608
2018-03-16T10:42:50.880Z,1612
2018-03-16T10:43:59.763Z,1624
2018-03-16T10:45:08.645Z,1528
2018-03-16T10:46:17.518Z,1592
2018-03-16T10:47:26.669Z,1464
2018-03-16T10:48:35.548Z,1532
2018-03-16T10:49:44.432Z,1552
2018-03-16T10:50:53.586Z,1588
2018-03-16T10:52:02.475Z,1628
2018-03-16T10:53:11.347Z,1644
2018-03-16T10:54:20.234Z,1652
2018-03-16T10:55:29.111Z,1644
2018-03-16T10:56:37.988Z,1608
2018-03-16T10:57:46.858Z,1596
2018-03-16T10:58:55.742Z,1568
2018-03-16T11:00:04.894Z,1572
2018-03-16T11:01:13.775Z,1572
2018-03-16T11:02:22.648Z,1516
2018-03-16T11:03:31.527Z,1540
2018-03-16T11:04:40.407Z,1536
2018-03-16T11:05:49.288Z,1556
2018-03-16T11:06:58.172Z,1568
2018-03-16T11:08:07.041Z,1608
2018-03-16T11:09:15.916Z,1620
2018-03-16T11:10:24.801Z,1676
2018-03-16T11:11:33.684Z,1700
2018-03-16T11:12:42.567Z,1700
2018-03-16T11:13:51.442Z,1716
2018-03-16T11:15:00.317Z,1632
2018-03-16T11:16:09.483Z,1620
2018-03-16T11:17:18.418Z,1504
2018-03-16T11:18:27.240Z,1524
2018-03-16T11:19:36.140Z,1544
2018-03-16T11:20:45.025Z,1532
2018-03-16T11:21:53.894Z,1552
2018-03-16T11:23:02.774Z,1532
2018-03-16T11:24:11.648Z,1516
2018-03-16T11:25:20.529Z,1468
2018-03-16T11:26:29.404Z,1468
2018-03-16T11:27:38.284Z,1464
2018-03-16T11:28:47.442Z,1492
2018-03-16T11:29:56.322Z,1508
2018-03-16T11:31:05.201Z,1608
2018-03-16T11:32:14.355Z,1656
2018-03-16T11:33:23.230Z,1580
2018-03-16T11:34:32.111Z,1700
2018-03-16T11:35:41.446Z,1684
2018-03-16T11:36:50.389Z,1804
2018-03-16T11:37:59.301Z,1896
2018-03-16T11:39:08.214Z,1964
2018-03-16T11:40:17.089Z,2024
2018-03-16T11:41:25.966Z,2176
2018-03-16T11:42:35.136Z,2232
2018-03-16T11:43:44.294Z,2256
2018-03-16T11:44:53.450Z,2232
2018-03-16T11:46:02.324Z,2220
2018-03-16T11:47:11.203Z,2228
2018-03-16T11:48:20.079Z,2204
2018-03-16T11:49:28.959Z,2124
2018-03-16T11:50:37.836Z,2040
2018-03-16T11:51:46.994Z,1984
2018-03-16T11:52:56.150Z,1864
2018-03-16T11:54:05.074Z,1808
2018-03-16T11:55:14.264Z,1748
